sensor_id;sensor_type;location;lat;lon;timestamp;P1;P2;P0
60816;PMS5003;51921;51.518;-3.188;2023-06-10T00:02:02;24;23;
60816;PMS5003;51921;51.518;-3.188;2023-06-10T00:04:27;21;21;
60816;PMS5003;51921;51.518;-3.188;2023-06-10T00:06:52;29;25;
60816;PMS5003;51921;51.518;-3.188;2023-06-10T00:09:18;26;25;
60816;PMS5003;51921;51.518;-3.188;2023-06-10T00:11:43;22;22;
60816;PMS5003;51921;51.518;-3.188;2023-06-10T00:14:08;26;23;
60816;PMS5003;51921;51.518;-3.188;2023-06-10T00:16:34;21;18;
60816;PMS5003;51921;51.518;-3.188;2023-06-10T00:18:59;27;24;
60816;PMS5003;51921;51.518;-3.188;2023-06-10T00:21:24;22;21;
60816;PMS5003;51921;51.518;-3.188;2023-06-10T00:23:50;20;19;
60816;PMS5003;51921;51.518;-3.188;2023-06-10T00:26:15;24;24;
60816;PMS5003;51921;51.518;-3.188;2023-06-10T00:28:40;21;18;
60816;PMS5003;51921;51.518;-3.188;2023-06-10T00:31:06;27;24;
60816;PMS5003;51921;51.518;-3.188;2023-06-10T00:33:31;26;24;
60816;PMS5003;51921;51.518;-3.188;2023-06-10T00:35:56;23;23;
60816;PMS5003;51921;51.518;-3.188;2023-06-10T00:38:22;22;20;
60816;PMS5003;51921;51.518;-3.188;2023-06-10T00:40:48;22;22;
60816;PMS5003;51921;51.518;-3.188;2023-06-10T00:43:13;23;22;
60816;PMS5003;51921;51.518;-3.188;2023-06-10T00:45:38;28;26;
60816;PMS5003;51921;51.518;-3.188;2023-06-10T00:48:04;24;24;
60816;PMS5003;51921;51.518;-3.188;2023-06-10T00:50:29;22;21;
60816;PMS5003;51921;51.518;-3.188;2023-06-10T00:52:54;25;23;
60816;PMS5003;51921;51.518;-3.188;2023-06-10T00:55:19;28;26;
60816;PMS5003;51921;51.518;-3.188;2023-06-10T00:57:45;21;21;
60816;PMS5003;51921;51.518;-3.188;2023-06-10T01:00:10;18;17;
60816;PMS5003;51921;51.518;-3.188;2023-06-10T01:02:35;23;23;
60816;PMS5003;51921;51.518;-3.188;2023-06-10T01:05:01;25;23;
60816;PMS5003;51921;51.518;-3.188;2023-06-10T01:07:28;24;24;
60816;PMS5003;51921;51.518;-3.188;2023-06-10T01:09:54;22;22;
60816;PMS5003;51921;51.518;-3.188;2023-06-10T01:12:18;23;22;
60816;PMS5003;51921;51.518;-3.188;2023-06-10T01:14:42;24;23;
60816;PMS5003;51921;51.518;-3.188;2023-06-10T01:17:07;21;20;
60816;PMS5003;51921;51.518;-3.188;2023-06-10T01:19:32;21;21;
60816;PMS5003;51921;51.518;-3.188;2023-06-10T01:21:58;21;18;
60816;PMS5003;51921;51.518;-3.188;2023-06-10T01:24:23;22;21;
60816;PMS5003;51921;51.518;-3.188;2023-06-10T01:26:48;24;23;
60816;PMS5003;51921;51.518;-3.188;2023-06-10T01:29:14;25;24;
60816;PMS5003;51921;51.518;-3.188;2023-06-10T01:31:41;25;23;
60816;PMS5003;51921;51.518;-3.188;2023-06-10T01:34:06;23;21;
60816;PMS5003;51921;51.518;-3.188;2023-06-10T01:36:30;24;22;
60816;PMS5003;51921;51.518;-3.188;2023-06-10T01:38:56;24;21;
60816;PMS5003;51921;51.518;-3.188;2023-06-10T01:41:21;21;21;
60816;PMS5003;51921;51.518;-3.188;2023-06-10T01:43:47;26;25;
60816;PMS5003;51921;51.518;-3.188;2023-06-10T01:46:13;21;21;
60816;PMS5003;51921;51.518;-3.188;2023-06-10T01:48:38;26;24;
60816;PMS5003;51921;51.518;-3.188;2023-06-10T01:51:04;25;23;
60816;PMS5003;51921;51.518;-3.188;2023-06-10T01:53:29;24;22;
60816;PMS5003;51921;51.518;-3.188;2023-06-10T01:55:54;30;27;
60816;PMS5003;51921;51.518;-3.188;2023-06-10T01:58:20;29;25;
60816;PMS5003;51921;51.518;-3.188;2023-06-10T02:00:45;25;21;
60816;PMS5003;51921;51.518;-3.188;2023-06-10T02:03:11;25;24;
60816;PMS5003;51921;51.518;-3.188;2023-06-10T02:05:36;26;22;
60816;PMS5003;51921;51.518;-3.188;2023-06-10T02:08:02;25;23;
60816;PMS5003;51921;51.518;-3.188;2023-06-10T02:10:27;22;21;
60816;PMS5003;51921;51.518;-3.188;2023-06-10T02:12:52;28;24;
60816;PMS5003;51921;51.518;-3.188;2023-06-10T02:15:18;21;20;
60816;PMS5003;51921;51.518;-3.188;2023-06-10T02:17:43;22;21;
60816;PMS5003;51921;51.518;-3.188;2023-06-10T02:20:09;25;25;
60816;PMS5003;51921;51.518;-3.188;2023-06-10T02:22:34;28;27;
60816;PMS5003;51921;51.518;-3.188;2023-06-10T02:24:59;24;21;
60816;PMS5003;51921;51.518;-3.188;2023-06-10T02:27:25;24;22;
60816;PMS5003;51921;51.518;-3.188;2023-06-10T02:29:50;24;22;
60816;PMS5003;51921;51.518;-3.188;2023-06-10T02:32:16;26;23;
60816;PMS5003;51921;51.518;-3.188;2023-06-10T02:34:41;25;24;
60816;PMS5003;51921;51.518;-3.188;2023-06-10T02:37:07;21;21;
60816;PMS5003;51921;51.518;-3.188;2023-06-10T02:39:32;27;26;
60816;PMS5003;51921;51.518;-3.188;2023-06-10T02:41:58;28;27;
60816;PMS5003;51921;51.518;-3.188;2023-06-10T02:44:23;28;27;
60816;PMS5003;51921;51.518;-3.188;2023-06-10T02:46:49;27;24;
60816;PMS5003;51921;51.518;-3.188;2023-06-10T02:49:14;23;23;
60816;PMS5003;51921;51.518;-3.188;2023-06-10T02:51:40;33;31;
60816;PMS5003;51921;51.518;-3.188;2023-06-10T02:54:05;30;27;
60816;PMS5003;51921;51.518;-3.188;2023-06-10T02:56:31;29;28;
60816;PMS5003;51921;51.518;-3.188;2023-06-10T02:58:56;26;25;
60816;PMS5003;51921;51.518;-3.188;2023-06-10T03:01:22;29;26;
60816;PMS5003;51921;51.518;-3.188;2023-06-10T03:03:47;27;25;
60816;PMS5003;51921;51.518;-3.188;2023-06-10T03:06:13;27;27;
60816;PMS5003;51921;51.518;-3.188;2023-06-10T03:08:38;28;27;
60816;PMS5003;51921;51.518;-3.188;2023-06-10T03:11:04;26;24;
60816;PMS5003;51921;51.518;-3.188;2023-06-10T03:13:29;26;26;
60816;PMS5003;51921;51.518;-3.188;2023-06-10T03:15:55;29;26;
60816;PMS5003;51921;51.518;-3.188;2023-06-10T03:18:21;28;27;
60816;PMS5003;51921;51.518;-3.188;2023-06-10T03:20:46;23;22;
60816;PMS5003;51921;51.518;-3.188;2023-06-10T03:23:12;29;28;
60816;PMS5003;51921;51.518;-3.188;2023-06-10T03:25:38;34;30;
60816;PMS5003;51921;51.518;-3.188;2023-06-10T03:28:04;26;26;
60816;PMS5003;51921;51.518;-3.188;2023-06-10T03:30:30;25;25;
60816;PMS5003;51921;51.518;-3.188;2023-06-10T03:32:55;30;28;
60816;PMS5003;51921;51.518;-3.188;2023-06-10T03:35:21;25;25;
60816;PMS5003;51921;51.518;-3.188;2023-06-10T03:37:46;29;27;
60816;PMS5003;51921;51.518;-3.188;2023-06-10T03:40:12;25;24;
60816;PMS5003;51921;51.518;-3.188;2023-06-10T03:42:37;24;23;
60816;PMS5003;51921;51.518;-3.188;2023-06-10T03:45:03;29;28;
60816;PMS5003;51921;51.518;-3.188;2023-06-10T03:47:32;24;22;
60816;PMS5003;51921;51.518;-3.188;2023-06-10T03:49:54;28;25;
60816;PMS5003;51921;51.518;-3.188;2023-06-10T03:52:20;28;27;
60816;PMS5003;51921;51.518;-3.188;2023-06-10T03:54:46;27;26;
60816;PMS5003;51921;51.518;-3.188;2023-06-10T03:57:11;29;26;
60816;PMS5003;51921;51.518;-3.188;2023-06-10T03:59:37;29;26;
60816;PMS5003;51921;51.518;-3.188;2023-06-10T04:02:02;28;26;
60816;PMS5003;51921;51.518;-3.188;2023-06-10T04:04:28;24;23;
60816;PMS5003;51921;51.518;-3.188;2023-06-10T04:06:53;25;24;
60816;PMS5003;51921;51.518;-3.188;2023-06-10T04:09:18;28;26;
60816;PMS5003;51921;51.518;-3.188;2023-06-10T04:11:43;26;24;
60816;PMS5003;51921;51.518;-3.188;2023-06-10T04:14:09;25;22;
60816;PMS5003;51921;51.518;-3.188;2023-06-10T04:16:34;25;25;
60816;PMS5003;51921;51.518;-3.188;2023-06-10T04:18:59;27;24;
60816;PMS5003;51921;51.518;-3.188;2023-06-10T04:21:25;24;21;
60816;PMS5003;51921;51.518;-3.188;2023-06-10T04:23:51;27;27;
60816;PMS5003;51921;51.518;-3.188;2023-06-10T04:26:17;27;27;
60816;PMS5003;51921;51.518;-3.188;2023-06-10T04:28:42;24;24;
60816;PMS5003;51921;51.518;-3.188;2023-06-10T04:31:07;28;28;
60816;PMS5003;51921;51.518;-3.188;2023-06-10T04:33:33;27;26;
60816;PMS5003;51921;51.518;-3.188;2023-06-10T04:35:59;30;28;
60816;PMS5003;51921;51.518;-3.188;2023-06-10T04:38:25;27;26;
60816;PMS5003;51921;51.518;-3.188;2023-06-10T04:40:50;25;23;
60816;PMS5003;51921;51.518;-3.188;2023-06-10T04:43:16;29;27;
60816;PMS5003;51921;51.518;-3.188;2023-06-10T04:45:42;30;27;
60816;PMS5003;51921;51.518;-3.188;2023-06-10T04:48:07;29;27;
60816;PMS5003;51921;51.518;-3.188;2023-06-10T04:50:33;25;24;
60816;PMS5003;51921;51.518;-3.188;2023-06-10T04:52:58;28;27;
60816;PMS5003;51921;51.518;-3.188;2023-06-10T04:55:23;33;31;
60816;PMS5003;51921;51.518;-3.188;2023-06-10T04:57:49;25;25;
60816;PMS5003;51921;51.518;-3.188;2023-06-10T05:00:15;36;34;
60816;PMS5003;51921;51.518;-3.188;2023-06-10T05:02:40;32;29;
60816;PMS5003;51921;51.518;-3.188;2023-06-10T05:05:06;30;29;
60816;PMS5003;51921;51.518;-3.188;2023-06-10T05:07:31;30;30;
60816;PMS5003;51921;51.518;-3.188;2023-06-10T05:09:56;30;27;
60816;PMS5003;51921;51.518;-3.188;2023-06-10T05:12:21;32;31;
60816;PMS5003;51921;51.518;-3.188;2023-06-10T05:14:46;30;28;
60816;PMS5003;51921;51.518;-3.188;2023-06-10T05:17:11;32;31;
60816;PMS5003;51921;51.518;-3.188;2023-06-10T05:19:37;30;28;
60816;PMS5003;51921;51.518;-3.188;2023-06-10T05:22:02;30;28;
60816;PMS5003;51921;51.518;-3.188;2023-06-10T05:24:28;36;33;
60816;PMS5003;51921;51.518;-3.188;2023-06-10T05:26:53;31;29;
60816;PMS5003;51921;51.518;-3.188;2023-06-10T05:29:19;27;26;
60816;PMS5003;51921;51.518;-3.188;2023-06-10T05:31:44;30;29;
60816;PMS5003;51921;51.518;-3.188;2023-06-10T05:34:10;37;35;
60816;PMS5003;51921;51.518;-3.188;2023-06-10T05:36:35;36;33;
60816;PMS5003;51921;51.518;-3.188;2023-06-10T05:39:01;32;28;
60816;PMS5003;51921;51.518;-3.188;2023-06-10T05:41:26;33;32;
60816;PMS5003;51921;51.518;-3.188;2023-06-10T05:43:52;32;32;
60816;PMS5003;51921;51.518;-3.188;2023-06-10T05:46:17;35;31;
60816;PMS5003;51921;51.518;-3.188;2023-06-10T05:48:43;34;32;
60816;PMS5003;51921;51.518;-3.188;2023-06-10T05:51:08;32;32;
60816;PMS5003;51921;51.518;-3.188;2023-06-10T05:53:34;33;32;
60816;PMS5003;51921;51.518;-3.188;2023-06-10T05:55:59;35;32;
60816;PMS5003;51921;51.518;-3.188;2023-06-10T05:58:24;37;33;
60816;PMS5003;51921;51.518;-3.188;2023-06-10T06:00:50;36;34;
60816;PMS5003;51921;51.518;-3.188;2023-06-10T06:03:16;36;36;
60816;PMS5003;51921;51.518;-3.188;2023-06-10T06:05:41;36;34;
60816;PMS5003;51921;51.518;-3.188;2023-06-10T06:08:06;36;34;
60816;PMS5003;51921;51.518;-3.188;2023-06-10T06:10:32;37;37;
60816;PMS5003;51921;51.518;-3.188;2023-06-10T06:12:58;32;31;
60816;PMS5003;51921;51.518;-3.188;2023-06-10T06:15:23;37;32;
60816;PMS5003;51921;51.518;-3.188;2023-06-10T06:17:48;35;35;
60816;PMS5003;51921;51.518;-3.188;2023-06-10T06:20:14;35;34;
60816;PMS5003;51921;51.518;-3.188;2023-06-10T06:22:39;30;29;
60816;PMS5003;51921;51.518;-3.188;2023-06-10T06:25:05;40;34;
60816;PMS5003;51921;51.518;-3.188;2023-06-10T06:27:30;34;31;
60816;PMS5003;51921;51.518;-3.188;2023-06-10T06:29:55;35;29;
60816;PMS5003;51921;51.518;-3.188;2023-06-10T06:32:21;36;34;
60816;PMS5003;51921;51.518;-3.188;2023-06-10T06:34:46;37;35;
60816;PMS5003;51921;51.518;-3.188;2023-06-10T06:37:11;32;31;
60816;PMS5003;51921;51.518;-3.188;2023-06-10T06:39:37;38;36;
60816;PMS5003;51921;51.518;-3.188;2023-06-10T06:42:03;34;33;
60816;PMS5003;51921;51.518;-3.188;2023-06-10T06:44:28;34;31;
60816;PMS5003;51921;51.518;-3.188;2023-06-10T06:46:53;34;31;
60816;PMS5003;51921;51.518;-3.188;2023-06-10T06:49:19;37;34;
60816;PMS5003;51921;51.518;-3.188;2023-06-10T06:51:44;37;35;
60816;PMS5003;51921;51.518;-3.188;2023-06-10T06:54:10;42;39;
60816;PMS5003;51921;51.518;-3.188;2023-06-10T06:56:35;33;31;
60816;PMS5003;51921;51.518;-3.188;2023-06-10T06:59:00;37;36;
60816;PMS5003;51921;51.518;-3.188;2023-06-10T07:01:26;28;28;
60816;PMS5003;51921;51.518;-3.188;2023-06-10T07:03:51;29;28;
60816;PMS5003;51921;51.518;-3.188;2023-06-10T07:06:17;37;36;
60816;PMS5003;51921;51.518;-3.188;2023-06-10T07:08:42;33;30;
60816;PMS5003;51921;51.518;-3.188;2023-06-10T07:11:07;34;34;
60816;PMS5003;51921;51.518;-3.188;2023-06-10T07:13:33;33;30;
60816;PMS5003;51921;51.518;-3.188;2023-06-10T07:15:58;31;31;
60816;PMS5003;51921;51.518;-3.188;2023-06-10T07:18:24;34;31;
60816;PMS5003;51921;51.518;-3.188;2023-06-10T07:20:49;33;32;
60816;PMS5003;51921;51.518;-3.188;2023-06-10T07:23:14;35;34;
60816;PMS5003;51921;51.518;-3.188;2023-06-10T07:25:40;37;33;
60816;PMS5003;51921;51.518;-3.188;2023-06-10T07:28:05;35;32;
60816;PMS5003;51921;51.518;-3.188;2023-06-10T07:30:30;37;34;
60816;PMS5003;51921;51.518;-3.188;2023-06-10T07:32:56;41;37;
60816;PMS5003;51921;51.518;-3.188;2023-06-10T07:35:22;39;37;
60816;PMS5003;51921;51.518;-3.188;2023-06-10T07:37:47;34;31;
60816;PMS5003;51921;51.518;-3.188;2023-06-10T07:40:13;31;29;
60816;PMS5003;51921;51.518;-3.188;2023-06-10T07:42:38;39;36;
60816;PMS5003;51921;51.518;-3.188;2023-06-10T07:45:04;27;26;
60816;PMS5003;51921;51.518;-3.188;2023-06-10T07:47:29;39;36;
60816;PMS5003;51921;51.518;-3.188;2023-06-10T07:49:55;31;30;
60816;PMS5003;51921;51.518;-3.188;2023-06-10T07:52:21;30;27;
60816;PMS5003;51921;51.518;-3.188;2023-06-10T07:54:46;30;29;
60816;PMS5003;51921;51.518;-3.188;2023-06-10T07:57:17;31;28;
60816;PMS5003;51921;51.518;-3.188;2023-06-10T07:59:37;31;29;
60816;PMS5003;51921;51.518;-3.188;2023-06-10T08:02:03;32;28;
60816;PMS5003;51921;51.518;-3.188;2023-06-10T08:04:28;34;32;
60816;PMS5003;51921;51.518;-3.188;2023-06-10T08:06:53;31;29;
60816;PMS5003;51921;51.518;-3.188;2023-06-10T08:09:18;25;25;
60816;PMS5003;51921;51.518;-3.188;2023-06-10T08:11:46;30;28;
60816;PMS5003;51921;51.518;-3.188;2023-06-10T08:14:10;30;28;
60816;PMS5003;51921;51.518;-3.188;2023-06-10T08:16:35;32;30;
60816;PMS5003;51921;51.518;-3.188;2023-06-10T08:19:00;31;28;
60816;PMS5003;51921;51.518;-3.188;2023-06-10T08:21:25;31;29;
60816;PMS5003;51921;51.518;-3.188;2023-06-10T08:23:52;34;29;
60816;PMS5003;51921;51.518;-3.188;2023-06-10T08:26:17;28;26;
60816;PMS5003;51921;51.518;-3.188;2023-06-10T08:28:42;37;34;
60816;PMS5003;51921;51.518;-3.188;2023-06-10T08:31:07;30;29;
60816;PMS5003;51921;51.518;-3.188;2023-06-10T08:33:32;30;27;
60816;PMS5003;51921;51.518;-3.188;2023-06-10T08:35:58;29;29;
60816;PMS5003;51921;51.518;-3.188;2023-06-10T08:38:24;32;31;
60816;PMS5003;51921;51.518;-3.188;2023-06-10T08:40:49;30;29;
60816;PMS5003;51921;51.518;-3.188;2023-06-10T08:43:16;36;35;
60816;PMS5003;51921;51.518;-3.188;2023-06-10T08:45:40;35;34;
60816;PMS5003;51921;51.518;-3.188;2023-06-10T08:48:06;30;29;
60816;PMS5003;51921;51.518;-3.188;2023-06-10T08:50:31;30;29;
60816;PMS5003;51921;51.518;-3.188;2023-06-10T08:52:57;30;26;
60816;PMS5003;51921;51.518;-3.188;2023-06-10T08:55:23;30;29;
60816;PMS5003;51921;51.518;-3.188;2023-06-10T08:57:47;34;33;
60816;PMS5003;51921;51.518;-3.188;2023-06-10T09:00:12;36;35;
60816;PMS5003;51921;51.518;-3.188;2023-06-10T09:02:38;37;36;
60816;PMS5003;51921;51.518;-3.188;2023-06-10T09:05:04;32;29;
60816;PMS5003;51921;51.518;-3.188;2023-06-10T09:07:29;31;30;
60816;PMS5003;51921;51.518;-3.188;2023-06-10T09:09:54;36;36;
60816;PMS5003;51921;51.518;-3.188;2023-06-10T09:12:19;29;28;
60816;PMS5003;51921;51.518;-3.188;2023-06-10T09:14:44;34;30;
60816;PMS5003;51921;51.518;-3.188;2023-06-10T09:17:10;33;31;
60816;PMS5003;51921;51.518;-3.188;2023-06-10T09:19:36;29;28;
60816;PMS5003;51921;51.518;-3.188;2023-06-10T09:22:01;34;30;
60816;PMS5003;51921;51.518;-3.188;2023-06-10T09:24:27;31;29;
60816;PMS5003;51921;51.518;-3.188;2023-06-10T09:29:18;36;33;
60816;PMS5003;51921;51.518;-3.188;2023-06-10T09:31:43;35;31;
60816;PMS5003;51921;51.518;-3.188;2023-06-10T09:34:08;29;25;
60816;PMS5003;51921;51.518;-3.188;2023-06-10T09:36:33;33;31;
60816;PMS5003;51921;51.518;-3.188;2023-06-10T09:38:58;34;32;
60816;PMS5003;51921;51.518;-3.188;2023-06-10T09:43:49;26;23;
60816;PMS5003;51921;51.518;-3.188;2023-06-10T09:46:15;30;28;
60816;PMS5003;51921;51.518;-3.188;2023-06-10T09:48:40;34;31;
60816;PMS5003;51921;51.518;-3.188;2023-06-10T09:51:08;31;29;
60816;PMS5003;51921;51.518;-3.188;2023-06-10T09:53:33;27;24;
60816;PMS5003;51921;51.518;-3.188;2023-06-10T09:55:56;29;27;
60816;PMS5003;51921;51.518;-3.188;2023-06-10T10:00:48;29;28;
60816;PMS5003;51921;51.518;-3.188;2023-06-10T10:03:12;29;27;
60816;PMS5003;51921;51.518;-3.188;2023-06-10T10:05:38;26;26;
60816;PMS5003;51921;51.518;-3.188;2023-06-10T10:08:03;27;27;
60816;PMS5003;51921;51.518;-3.188;2023-06-10T10:10:28;29;28;
60816;PMS5003;51921;51.518;-3.188;2023-06-10T10:12:54;34;31;
60816;PMS5003;51921;51.518;-3.188;2023-06-10T10:15:19;28;28;
60816;PMS5003;51921;51.518;-3.188;2023-06-10T10:17:46;29;28;
60816;PMS5003;51921;51.518;-3.188;2023-06-10T10:20:11;29;28;
60816;PMS5003;51921;51.518;-3.188;2023-06-10T10:22:37;29;29;
60816;PMS5003;51921;51.518;-3.188;2023-06-10T10:25:02;26;25;
60816;PMS5003;51921;51.518;-3.188;2023-06-10T10:27:27;30;27;
60816;PMS5003;51921;51.518;-3.188;2023-06-10T10:29:52;28;27;
60816;PMS5003;51921;51.518;-3.188;2023-06-10T10:32:17;26;26;
60816;PMS5003;51921;51.518;-3.188;2023-06-10T10:34:43;25;25;
60816;PMS5003;51921;51.518;-3.188;2023-06-10T10:37:08;24;24;
60816;PMS5003;51921;51.518;-3.188;2023-06-10T10:39:33;25;24;
60816;PMS5003;51921;51.518;-3.188;2023-06-10T10:41:59;29;28;
60816;PMS5003;51921;51.518;-3.188;2023-06-10T10:44:24;27;27;
60816;PMS5003;51921;51.518;-3.188;2023-06-10T10:46:49;27;25;
60816;PMS5003;51921;51.518;-3.188;2023-06-10T10:49:14;26;24;
60816;PMS5003;51921;51.518;-3.188;2023-06-10T10:54:10;28;28;
60816;PMS5003;51921;51.518;-3.188;2023-06-10T10:56:30;25;25;
60816;PMS5003;51921;51.518;-3.188;2023-06-10T11:01:20;26;25;
60816;PMS5003;51921;51.518;-3.188;2023-06-10T11:03:46;28;26;
60816;PMS5003;51921;51.518;-3.188;2023-06-10T11:06:13;24;24;
60816;PMS5003;51921;51.518;-3.188;2023-06-10T11:08:46;26;26;
60816;PMS5003;51921;51.518;-3.188;2023-06-10T11:11:17;29;27;
60816;PMS5003;51921;51.518;-3.188;2023-06-10T11:13:27;28;26;
60816;PMS5003;51921;51.518;-3.188;2023-06-10T11:15:56;28;26;
60816;PMS5003;51921;51.518;-3.188;2023-06-10T11:18:22;23;23;
60816;PMS5003;51921;51.518;-3.188;2023-06-10T11:20:45;26;24;
60816;PMS5003;51921;51.518;-3.188;2023-06-10T11:23:09;32;28;
60816;PMS5003;51921;51.518;-3.188;2023-06-10T11:25:38;28;25;
60816;PMS5003;51921;51.518;-3.188;2023-06-10T11:27:59;28;27;
60816;PMS5003;51921;51.518;-3.188;2023-06-10T11:30:25;28;26;
60816;PMS5003;51921;51.518;-3.188;2023-06-10T11:32:51;25;24;
60816;PMS5003;51921;51.518;-3.188;2023-06-10T11:35:16;27;26;
60816;PMS5003;51921;51.518;-3.188;2023-06-10T11:37:41;32;31;
60816;PMS5003;51921;51.518;-3.188;2023-06-10T11:40:08;26;24;
60816;PMS5003;51921;51.518;-3.188;2023-06-10T11:42:31;23;22;
60816;PMS5003;51921;51.518;-3.188;2023-06-10T11:44:57;26;25;
60816;PMS5003;51921;51.518;-3.188;2023-06-10T11:47:23;26;24;
60816;PMS5003;51921;51.518;-3.188;2023-06-10T11:52:13;27;24;
60816;PMS5003;51921;51.518;-3.188;2023-06-10T11:54:39;27;25;
60816;PMS5003;51921;51.518;-3.188;2023-06-10T11:57:04;23;23;
60816;PMS5003;51921;51.518;-3.188;2023-06-10T11:59:30;22;22;
60816;PMS5003;51921;51.518;-3.188;2023-06-10T12:01:55;24;22;
60816;PMS5003;51921;51.518;-3.188;2023-06-10T12:04:20;28;28;
60816;PMS5003;51921;51.518;-3.188;2023-06-10T12:06:46;27;25;
60816;PMS5003;51921;51.518;-3.188;2023-06-10T12:09:17;24;24;
60816;PMS5003;51921;51.518;-3.188;2023-06-10T12:11:36;25;24;
60816;PMS5003;51921;51.518;-3.188;2023-06-10T12:14:02;26;24;
60816;PMS5003;51921;51.518;-3.188;2023-06-10T12:16:27;24;23;
60816;PMS5003;51921;51.518;-3.188;2023-06-10T12:19:00;21;21;
60816;PMS5003;51921;51.518;-3.188;2023-06-10T12:21:18;27;27;
60816;PMS5003;51921;51.518;-3.188;2023-06-10T12:26:08;24;24;
60816;PMS5003;51921;51.518;-3.188;2023-06-10T12:28:34;23;22;
60816;PMS5003;51921;51.518;-3.188;2023-06-10T12:31:06;28;25;
60816;PMS5003;51921;51.518;-3.188;2023-06-10T12:33:25;23;22;
60816;PMS5003;51921;51.518;-3.188;2023-06-10T12:35:51;25;25;
60816;PMS5003;51921;51.518;-3.188;2023-06-10T12:38:20;23;22;
60816;PMS5003;51921;51.518;-3.188;2023-06-10T12:40:41;30;27;
60816;PMS5003;51921;51.518;-3.188;2023-06-10T12:43:07;24;22;
60816;PMS5003;51921;51.518;-3.188;2023-06-10T12:45:33;25;25;
60816;PMS5003;51921;51.518;-3.188;2023-06-10T12:48:05;26;25;
60816;PMS5003;51921;51.518;-3.188;2023-06-10T12:50:23;24;24;
60816;PMS5003;51921;51.518;-3.188;2023-06-10T12:52:49;27;26;
60816;PMS5003;51921;51.518;-3.188;2023-06-10T12:55:15;28;27;
60816;PMS5003;51921;51.518;-3.188;2023-06-10T12:57:49;27;27;
60816;PMS5003;51921;51.518;-3.188;2023-06-10T13:00:06;25;24;
60816;PMS5003;51921;51.518;-3.188;2023-06-10T13:02:31;26;25;
60816;PMS5003;51921;51.518;-3.188;2023-06-10T13:04:56;24;24;
60816;PMS5003;51921;51.518;-3.188;2023-06-10T13:07:21;31;29;
60816;PMS5003;51921;51.518;-3.188;2023-06-10T13:09:47;27;27;
60816;PMS5003;51921;51.518;-3.188;2023-06-10T13:12:12;23;22;
60816;PMS5003;51921;51.518;-3.188;2023-06-10T13:14:37;28;27;
60816;PMS5003;51921;51.518;-3.188;2023-06-10T13:17:02;24;24;
60816;PMS5003;51921;51.518;-3.188;2023-06-10T13:19:28;28;26;
60816;PMS5003;51921;51.518;-3.188;2023-06-10T13:21:54;27;26;
60816;PMS5003;51921;51.518;-3.188;2023-06-10T13:24:19;27;26;
60816;PMS5003;51921;51.518;-3.188;2023-06-10T13:26:45;25;24;
60816;PMS5003;51921;51.518;-3.188;2023-06-10T13:29:10;27;26;
60816;PMS5003;51921;51.518;-3.188;2023-06-10T13:31:36;31;28;
60816;PMS5003;51921;51.518;-3.188;2023-06-10T13:34:02;25;23;
60816;PMS5003;51921;51.518;-3.188;2023-06-10T13:36:27;29;29;
60816;PMS5003;51921;51.518;-3.188;2023-06-10T13:38:52;31;30;
60816;PMS5003;51921;51.518;-3.188;2023-06-10T13:41:17;26;25;
60816;PMS5003;51921;51.518;-3.188;2023-06-10T13:43:43;29;27;
60816;PMS5003;51921;51.518;-3.188;2023-06-10T13:46:08;25;24;
60816;PMS5003;51921;51.518;-3.188;2023-06-10T13:48:33;29;28;
60816;PMS5003;51921;51.518;-3.188;2023-06-10T13:50:59;27;25;
60816;PMS5003;51921;51.518;-3.188;2023-06-10T13:53:24;31;29;
60816;PMS5003;51921;51.518;-3.188;2023-06-10T13:55:49;29;28;
60816;PMS5003;51921;51.518;-3.188;2023-06-10T13:58:15;25;25;
60816;PMS5003;51921;51.518;-3.188;2023-06-10T14:00:41;30;27;
60816;PMS5003;51921;51.518;-3.188;2023-06-10T14:03:06;28;27;
60816;PMS5003;51921;51.518;-3.188;2023-06-10T14:05:32;29;27;
60816;PMS5003;51921;51.518;-3.188;2023-06-10T14:07:58;25;24;
60816;PMS5003;51921;51.518;-3.188;2023-06-10T14:10:24;29;28;
60816;PMS5003;51921;51.518;-3.188;2023-06-10T14:12:50;26;26;
60816;PMS5003;51921;51.518;-3.188;2023-06-10T14:15:15;25;25;
60816;PMS5003;51921;51.518;-3.188;2023-06-10T14:17:41;34;28;
60816;PMS5003;51921;51.518;-3.188;2023-06-10T14:20:07;30;30;
60816;PMS5003;51921;51.518;-3.188;2023-06-10T14:22:32;27;27;
60816;PMS5003;51921;51.518;-3.188;2023-06-10T14:24:57;24;24;
60816;PMS5003;51921;51.518;-3.188;2023-06-10T14:27:23;24;23;
60816;PMS5003;51921;51.518;-3.188;2023-06-10T14:29:48;30;29;
60816;PMS5003;51921;51.518;-3.188;2023-06-10T14:32:14;26;25;
60816;PMS5003;51921;51.518;-3.188;2023-06-10T14:34:39;28;27;
60816;PMS5003;51921;51.518;-3.188;2023-06-10T14:37:05;26;26;
60816;PMS5003;51921;51.518;-3.188;2023-06-10T14:39:30;26;26;
60816;PMS5003;51921;51.518;-3.188;2023-06-10T14:41:55;28;27;
60816;PMS5003;51921;51.518;-3.188;2023-06-10T14:44:20;26;24;
60816;PMS5003;51921;51.518;-3.188;2023-06-10T14:46:46;26;26;
60816;PMS5003;51921;51.518;-3.188;2023-06-10T14:49:11;27;27;
60816;PMS5003;51921;51.518;-3.188;2023-06-10T14:51:37;26;25;
60816;PMS5003;51921;51.518;-3.188;2023-06-10T14:54:02;30;30;
60816;PMS5003;51921;51.518;-3.188;2023-06-10T14:56:27;28;26;
60816;PMS5003;51921;51.518;-3.188;2023-06-10T14:58:53;24;23;
60816;PMS5003;51921;51.518;-3.188;2023-06-10T15:01:19;27;25;
60816;PMS5003;51921;51.518;-3.188;2023-06-10T15:03:44;28;26;
60816;PMS5003;51921;51.518;-3.188;2023-06-10T15:06:10;26;25;
60816;PMS5003;51921;51.518;-3.188;2023-06-10T15:08:36;24;24;
60816;PMS5003;51921;51.518;-3.188;2023-06-10T15:11:02;28;27;
60816;PMS5003;51921;51.518;-3.188;2023-06-10T15:13:27;31;30;
60816;PMS5003;51921;51.518;-3.188;2023-06-10T15:15:52;24;24;
60816;PMS5003;51921;51.518;-3.188;2023-06-10T15:18:17;26;26;
60816;PMS5003;51921;51.518;-3.188;2023-06-10T15:20:43;25;23;
60816;PMS5003;51921;51.518;-3.188;2023-06-10T15:23:08;29;29;
60816;PMS5003;51921;51.518;-3.188;2023-06-10T15:25:33;27;25;
60816;PMS5003;51921;51.518;-3.188;2023-06-10T15:27:59;26;26;
60816;PMS5003;51921;51.518;-3.188;2023-06-10T15:30:24;33;33;
60816;PMS5003;51921;51.518;-3.188;2023-06-10T15:32:49;33;31;
60816;PMS5003;51921;51.518;-3.188;2023-06-10T15:35:15;28;28;
60816;PMS5003;51921;51.518;-3.188;2023-06-10T15:37:40;30;29;
60816;PMS5003;51921;51.518;-3.188;2023-06-10T15:40:06;30;29;
60816;PMS5003;51921;51.518;-3.188;2023-06-10T15:42:30;30;29;
60816;PMS5003;51921;51.518;-3.188;2023-06-10T15:44:56;28;28;
60816;PMS5003;51921;51.518;-3.188;2023-06-10T15:47:21;30;29;
60816;PMS5003;51921;51.518;-3.188;2023-06-10T15:49:47;31;30;
60816;PMS5003;51921;51.518;-3.188;2023-06-10T15:52:12;32;31;
60816;PMS5003;51921;51.518;-3.188;2023-06-10T15:54:38;31;28;
60816;PMS5003;51921;51.518;-3.188;2023-06-10T15:57:03;31;31;
60816;PMS5003;51921;51.518;-3.188;2023-06-10T15:59:29;34;33;
60816;PMS5003;51921;51.518;-3.188;2023-06-10T16:01:54;38;36;
60816;PMS5003;51921;51.518;-3.188;2023-06-10T16:04:19;34;33;
60816;PMS5003;51921;51.518;-3.188;2023-06-10T16:06:44;33;30;